Ampton, United Kingdom
Current Conditions -  °F | °C
As of 4:31 PM on Wednesday 26 Nov 2014 (Local Time) from EGUL Reporting Station
Haze Haze  
Wind Chill:   Ceiling: 200
Heat Index:   Visibility: 0.75mi
Dew Point:   Wind: 2mph
Humidity: 100%   Direction: 90°E
Pressure: 29.8"   Gusts: NA
Location:  52.33°N, 0.85°E
Report Text: EGUL 261631Z AUTO 09002KT 1200 R06/0900 BR VV002 09/09 A2980 RMK AO2
Loading
Personal Weather Stations






























Interactive Weather Map New forecast layout! Learn more

10-Day Weather Forecast

Advertisements
Track Severe Weather on mobile